sensor_id;sensor_type;location;lat;lon;timestamp;P1;durP1;ratioP1;P2;durP2;ratioP2
49416;SDS011;35290;39.550;8.786;2024-02-26T00:00:30;10.48;;;4.50;;
49416;SDS011;35290;39.550;8.786;2024-02-26T00:02:57;13.95;;;5.13;;
49416;SDS011;35290;39.550;8.786;2024-02-26T00:05:22;8.65;;;5.00;;
49416;SDS011;35290;39.550;8.786;2024-02-26T00:07:48;8.57;;;4.47;;
49416;SDS011;35290;39.550;8.786;2024-02-26T00:10:14;12.98;;;4.63;;
49416;SDS011;35290;39.550;8.786;2024-02-26T00:12:41;12.60;;;4.15;;
49416;SDS011;35290;39.550;8.786;2024-02-26T00:15:06;8.60;;;3.88;;
49416;SDS011;35290;39.550;8.786;2024-02-26T00:17:33;10.65;;;3.75;;
49416;SDS011;35290;39.550;8.786;2024-02-26T00:19:58;12.32;;;3.80;;
49416;SDS011;35290;39.550;8.786;2024-02-26T00:22:26;7.13;;;3.95;;
49416;SDS011;35290;39.550;8.786;2024-02-26T00:24:52;9.70;;;3.88;;
49416;SDS011;35290;39.550;8.786;2024-02-26T00:27:17;7.50;;;3.63;;
49416;SDS011;35290;39.550;8.786;2024-02-26T00:29:43;10.40;;;3.60;;
49416;SDS011;35290;39.550;8.786;2024-02-26T00:32:09;6.28;;;3.10;;
49416;SDS011;35290;39.550;8.786;2024-02-26T00:34:34;9.25;;;3.53;;
49416;SDS011;35290;39.550;8.786;2024-02-26T00:37:01;9.63;;;3.63;;
49416;SDS011;35290;39.550;8.786;2024-02-26T00:39:26;7.72;;;3.03;;
49416;SDS011;35290;39.550;8.786;2024-02-26T00:41:52;7.75;;;2.97;;
49416;SDS011;35290;39.550;8.786;2024-02-26T00:44:17;8.80;;;3.00;;
49416;SDS011;35290;39.550;8.786;2024-02-26T00:46:43;10.32;;;3.08;;
49416;SDS011;35290;39.550;8.786;2024-02-26T00:49:09;4.72;;;2.72;;
49416;SDS011;35290;39.550;8.786;2024-02-26T00:51:35;6.93;;;3.13;;
49416;SDS011;35290;39.550;8.786;2024-02-26T00:54:01;7.43;;;3.30;;
49416;SDS011;35290;39.550;8.786;2024-02-26T00:56:27;18.38;;;3.67;;
49416;SDS011;35290;39.550;8.786;2024-02-26T00:58:52;7.60;;;2.88;;
49416;SDS011;35290;39.550;8.786;2024-02-26T01:01:19;6.05;;;3.03;;
49416;SDS011;35290;39.550;8.786;2024-02-26T01:03:45;5.28;;;2.63;;
49416;SDS011;35290;39.550;8.786;2024-02-26T01:06:10;7.13;;;2.75;;
49416;SDS011;35290;39.550;8.786;2024-02-26T01:08:35;8.07;;;2.75;;
49416;SDS011;35290;39.550;8.786;2024-02-26T01:11:04;11.93;;;3.40;;
49416;SDS011;35290;39.550;8.786;2024-02-26T01:13:29;8.90;;;3.50;;
49416;SDS011;35290;39.550;8.786;2024-02-26T01:15:55;9.40;;;3.38;;
49416;SDS011;35290;39.550;8.786;2024-02-26T01:18:20;7.93;;;3.40;;
49416;SDS011;35290;39.550;8.786;2024-02-26T01:20:46;9.85;;;4.43;;
49416;SDS011;35290;39.550;8.786;2024-02-26T01:23:12;7.43;;;3.60;;
49416;SDS011;35290;39.550;8.786;2024-02-26T01:25:37;11.07;;;3.70;;
49416;SDS011;35290;39.550;8.786;2024-02-26T01:28:04;8.07;;;4.50;;
49416;SDS011;35290;39.550;8.786;2024-02-26T01:30:30;8.00;;;3.83;;
49416;SDS011;35290;39.550;8.786;2024-02-26T01:32:55;11.50;;;4.10;;
49416;SDS011;35290;39.550;8.786;2024-02-26T01:35:21;9.40;;;4.60;;
49416;SDS011;35290;39.550;8.786;2024-02-26T01:37:46;8.05;;;4.28;;
49416;SDS011;35290;39.550;8.786;2024-02-26T01:40:12;9.93;;;4.32;;
49416;SDS011;35290;39.550;8.786;2024-02-26T01:42:43;8.35;;;3.67;;
49416;SDS011;35290;39.550;8.786;2024-02-26T01:45:12;10.70;;;3.85;;
49416;SDS011;35290;39.550;8.786;2024-02-26T01:47:41;7.75;;;3.85;;
49416;SDS011;35290;39.550;8.786;2024-02-26T01:50:06;11.07;;;3.80;;
49416;SDS011;35290;39.550;8.786;2024-02-26T01:52:33;15.63;;;3.97;;
49416;SDS011;35290;39.550;8.786;2024-02-26T01:54:59;8.23;;;4.30;;
49416;SDS011;35290;39.550;8.786;2024-02-26T01:57:26;7.28;;;4.03;;
49416;SDS011;35290;39.550;8.786;2024-02-26T01:59:52;12.45;;;4.43;;
49416;SDS011;35290;39.550;8.786;2024-02-26T02:02:18;10.13;;;3.80;;
49416;SDS011;35290;39.550;8.786;2024-02-26T02:04:44;10.02;;;4.18;;
49416;SDS011;35290;39.550;8.786;2024-02-26T02:07:09;8.80;;;4.40;;
49416;SDS011;35290;39.550;8.786;2024-02-26T02:09:35;6.32;;;3.92;;
49416;SDS011;35290;39.550;8.786;2024-02-26T02:12:02;7.93;;;4.10;;
49416;SDS011;35290;39.550;8.786;2024-02-26T02:14:28;8.05;;;3.85;;
49416;SDS011;35290;39.550;8.786;2024-02-26T02:16:53;7.60;;;3.72;;
49416;SDS011;35290;39.550;8.786;2024-02-26T02:19:18;8.60;;;5.00;;
49416;SDS011;35290;39.550;8.786;2024-02-26T02:21:46;8.35;;;4.15;;
49416;SDS011;35290;39.550;8.786;2024-02-26T02:24:11;11.88;;;5.05;;
49416;SDS011;35290;39.550;8.786;2024-02-26T02:26:37;10.02;;;4.20;;
49416;SDS011;35290;39.550;8.786;2024-02-26T02:29:03;10.27;;;3.60;;
49416;SDS011;35290;39.550;8.786;2024-02-26T02:31:28;10.23;;;3.53;;
49416;SDS011;35290;39.550;8.786;2024-02-26T02:33:54;7.95;;;3.65;;
49416;SDS011;35290;39.550;8.786;2024-02-26T02:36:19;7.00;;;2.75;;
49416;SDS011;35290;39.550;8.786;2024-02-26T02:38:48;9.68;;;2.90;;
49416;SDS011;35290;39.550;8.786;2024-02-26T02:41:15;4.82;;;2.80;;
49416;SDS011;35290;39.550;8.786;2024-02-26T02:43:40;7.85;;;2.88;;
49416;SDS011;35290;39.550;8.786;2024-02-26T02:46:06;10.73;;;3.15;;
49416;SDS011;35290;39.550;8.786;2024-02-26T02:48:32;6.32;;;2.88;;
49416;SDS011;35290;39.550;8.786;2024-02-26T02:50:57;9.20;;;2.35;;
49416;SDS011;35290;39.550;8.786;2024-02-26T02:53:23;7.32;;;2.67;;
49416;SDS011;35290;39.550;8.786;2024-02-26T02:55:48;8.48;;;2.70;;
49416;SDS011;35290;39.550;8.786;2024-02-26T02:58:13;9.30;;;2.53;;
49416;SDS011;35290;39.550;8.786;2024-02-26T03:00:39;7.35;;;2.50;;
49416;SDS011;35290;39.550;8.786;2024-02-26T03:03:06;7.90;;;2.72;;
49416;SDS011;35290;39.550;8.786;2024-02-26T03:05:31;9.93;;;2.70;;
49416;SDS011;35290;39.550;8.786;2024-02-26T03:07:57;8.90;;;2.80;;
49416;SDS011;35290;39.550;8.786;2024-02-26T03:10:23;9.68;;;2.40;;
49416;SDS011;35290;39.550;8.786;2024-02-26T03:12:50;6.22;;;2.45;;
49416;SDS011;35290;39.550;8.786;2024-02-26T03:15:15;9.55;;;2.50;;
49416;SDS011;35290;39.550;8.786;2024-02-26T03:17:41;5.45;;;2.08;;
49416;SDS011;35290;39.550;8.786;2024-02-26T03:20:06;4.70;;;2.10;;
49416;SDS011;35290;39.550;8.786;2024-02-26T03:22:35;7.85;;;3.15;;
49416;SDS011;35290;39.550;8.786;2024-02-26T03:25:00;8.60;;;2.80;;
49416;SDS011;35290;39.550;8.786;2024-02-26T03:27:26;6.38;;;3.10;;
49416;SDS011;35290;39.550;8.786;2024-02-26T03:29:52;8.18;;;3.97;;
49416;SDS011;35290;39.550;8.786;2024-02-26T03:32:18;8.27;;;4.40;;
49416;SDS011;35290;39.550;8.786;2024-02-26T03:34:43;13.50;;;6.43;;
49416;SDS011;35290;39.550;8.786;2024-02-26T03:37:08;13.48;;;5.68;;
49416;SDS011;35290;39.550;8.786;2024-02-26T03:39:35;12.98;;;5.28;;
49416;SDS011;35290;39.550;8.786;2024-02-26T03:42:01;7.95;;;3.80;;
49416;SDS011;35290;39.550;8.786;2024-02-26T03:44:27;8.45;;;3.30;;
49416;SDS011;35290;39.550;8.786;2024-02-26T03:46:52;10.02;;;2.60;;
49416;SDS011;35290;39.550;8.786;2024-02-26T03:49:18;8.93;;;3.05;;
49416;SDS011;35290;39.550;8.786;2024-02-26T03:51:45;6.32;;;2.30;;
49416;SDS011;35290;39.550;8.786;2024-02-26T03:54:10;8.38;;;2.22;;
49416;SDS011;35290;39.550;8.786;2024-02-26T03:56:36;8.40;;;3.63;;
49416;SDS011;35290;39.550;8.786;2024-02-26T03:59:01;9.23;;;3.55;;
49416;SDS011;35290;39.550;8.786;2024-02-26T04:01:29;8.20;;;3.85;;
49416;SDS011;35290;39.550;8.786;2024-02-26T04:03:54;8.45;;;3.90;;
49416;SDS011;35290;39.550;8.786;2024-02-26T04:06:20;9.95;;;5.72;;
49416;SDS011;35290;39.550;8.786;2024-02-26T04:08:49;8.77;;;5.45;;
49416;SDS011;35290;39.550;8.786;2024-02-26T04:11:20;11.73;;;7.10;;
49416;SDS011;35290;39.550;8.786;2024-02-26T04:16:14;13.68;;;5.95;;
49416;SDS011;35290;39.550;8.786;2024-02-26T04:18:40;9.18;;;5.55;;
49416;SDS011;35290;39.550;8.786;2024-02-26T04:21:05;8.93;;;5.30;;
49416;SDS011;35290;39.550;8.786;2024-02-26T04:23:32;6.07;;;3.90;;
49416;SDS011;35290;39.550;8.786;2024-02-26T04:25:57;9.45;;;3.67;;
49416;SDS011;35290;39.550;8.786;2024-02-26T04:28:23;8.73;;;4.15;;
49416;SDS011;35290;39.550;8.786;2024-02-26T04:30:51;12.43;;;5.30;;
49416;SDS011;35290;39.550;8.786;2024-02-26T04:33:18;13.38;;;6.32;;
49416;SDS011;35290;39.550;8.786;2024-02-26T04:35:43;9.70;;;5.68;;
49416;SDS011;35290;39.550;8.786;2024-02-26T04:38:09;16.25;;;6.22;;
49416;SDS011;35290;39.550;8.786;2024-02-26T04:40:34;11.40;;;4.90;;
49416;SDS011;35290;39.550;8.786;2024-02-26T04:43:00;10.55;;;5.10;;
49416;SDS011;35290;39.550;8.786;2024-02-26T04:45:25;10.35;;;4.55;;
49416;SDS011;35290;39.550;8.786;2024-02-26T04:47:51;15.48;;;5.32;;
49416;SDS011;35290;39.550;8.786;2024-02-26T04:50:16;10.20;;;3.92;;
49416;SDS011;35290;39.550;8.786;2024-02-26T04:52:42;7.40;;;2.72;;
49416;SDS011;35290;39.550;8.786;2024-02-26T04:55:07;9.65;;;3.00;;
49416;SDS011;35290;39.550;8.786;2024-02-26T04:57:33;12.43;;;3.30;;
49416;SDS011;35290;39.550;8.786;2024-02-26T04:59:58;8.98;;;2.72;;
49416;SDS011;35290;39.550;8.786;2024-02-26T05:02:26;16.00;;;4.10;;
49416;SDS011;35290;39.550;8.786;2024-02-26T05:04:52;11.70;;;3.70;;
49416;SDS011;35290;39.550;8.786;2024-02-26T05:07:17;13.82;;;3.67;;
49416;SDS011;35290;39.550;8.786;2024-02-26T05:09:44;7.72;;;3.30;;
49416;SDS011;35290;39.550;8.786;2024-02-26T05:12:12;12.50;;;3.10;;
49416;SDS011;35290;39.550;8.786;2024-02-26T05:14:37;12.88;;;3.70;;
49416;SDS011;35290;39.550;8.786;2024-02-26T05:17:04;9.77;;;3.60;;
49416;SDS011;35290;39.550;8.786;2024-02-26T05:19:31;9.00;;;3.15;;
49416;SDS011;35290;39.550;8.786;2024-02-26T05:21:58;8.80;;;2.80;;
49416;SDS011;35290;39.550;8.786;2024-02-26T05:24:23;8.85;;;3.05;;
49416;SDS011;35290;39.550;8.786;2024-02-26T05:26:49;12.55;;;3.80;;
49416;SDS011;35290;39.550;8.786;2024-02-26T05:29:14;11.07;;;3.63;;
49416;SDS011;35290;39.550;8.786;2024-02-26T05:31:43;17.88;;;5.18;;
49416;SDS011;35290;39.550;8.786;2024-02-26T05:34:09;11.15;;;4.28;;
49416;SDS011;35290;39.550;8.786;2024-02-26T05:36:34;19.27;;;6.30;;
49416;SDS011;35290;39.550;8.786;2024-02-26T05:39:00;21.58;;;7.68;;
49416;SDS011;35290;39.550;8.786;2024-02-26T05:41:26;15.45;;;5.88;;
49416;SDS011;35290;39.550;8.786;2024-02-26T05:43:52;14.23;;;5.65;;
49416;SDS011;35290;39.550;8.786;2024-02-26T05:46:18;15.02;;;5.55;;
49416;SDS011;35290;39.550;8.786;2024-02-26T05:48:44;14.73;;;6.18;;
49416;SDS011;35290;39.550;8.786;2024-02-26T05:51:11;13.90;;;6.07;;
49416;SDS011;35290;39.550;8.786;2024-02-26T05:53:37;20.85;;;7.45;;
49416;SDS011;35290;39.550;8.786;2024-02-26T05:56:02;14.57;;;5.82;;
49416;SDS011;35290;39.550;8.786;2024-02-26T05:58:28;23.50;;;8.60;;
49416;SDS011;35290;39.550;8.786;2024-02-26T06:00:54;16.90;;;7.10;;
49416;SDS011;35290;39.550;8.786;2024-02-26T06:03:20;19.85;;;6.40;;
49416;SDS011;35290;39.550;8.786;2024-02-26T06:05:46;18.67;;;6.95;;
49416;SDS011;35290;39.550;8.786;2024-02-26T06:08:11;22.10;;;7.15;;
49416;SDS011;35290;39.550;8.786;2024-02-26T06:10:36;18.90;;;6.97;;
49416;SDS011;35290;39.550;8.786;2024-02-26T06:13:05;24.13;;;8.88;;
49416;SDS011;35290;39.550;8.786;2024-02-26T06:15:30;21.90;;;8.23;;
49416;SDS011;35290;39.550;8.786;2024-02-26T06:17:56;40.05;;;16.98;;
49416;SDS011;35290;39.550;8.786;2024-02-26T06:20:21;43.72;;;19.90;;
49416;SDS011;35290;39.550;8.786;2024-02-26T06:22:48;44.53;;;22.52;;
49416;SDS011;35290;39.550;8.786;2024-02-26T06:25:13;34.00;;;16.35;;
49416;SDS011;35290;39.550;8.786;2024-02-26T06:27:39;33.97;;;17.40;;
49416;SDS011;35290;39.550;8.786;2024-02-26T06:30:05;33.03;;;16.38;;
49416;SDS011;35290;39.550;8.786;2024-02-26T06:32:30;28.50;;;13.50;;
49416;SDS011;35290;39.550;8.786;2024-02-26T06:34:56;20.98;;;10.77;;
49416;SDS011;35290;39.550;8.786;2024-02-26T06:37:21;22.50;;;8.85;;
49416;SDS011;35290;39.550;8.786;2024-02-26T06:39:47;27.77;;;9.90;;
49416;SDS011;35290;39.550;8.786;2024-02-26T06:42:13;31.77;;;9.15;;
49416;SDS011;35290;39.550;8.786;2024-02-26T06:44:38;29.38;;;10.68;;
49416;SDS011;35290;39.550;8.786;2024-02-26T06:47:04;30.83;;;9.55;;
49416;SDS011;35290;39.550;8.786;2024-02-26T06:49:29;26.73;;;9.10;;
49416;SDS011;35290;39.550;8.786;2024-02-26T06:51:55;28.48;;;10.23;;
49416;SDS011;35290;39.550;8.786;2024-02-26T06:54:21;32.35;;;8.18;;
49416;SDS011;35290;39.550;8.786;2024-02-26T06:56:46;24.70;;;8.00;;
49416;SDS011;35290;39.550;8.786;2024-02-26T06:59:12;30.33;;;7.97;;
49416;SDS011;35290;39.550;8.786;2024-02-26T07:01:41;23.90;;;9.52;;
49416;SDS011;35290;39.550;8.786;2024-02-26T07:04:06;29.33;;;8.82;;
49416;SDS011;35290;39.550;8.786;2024-02-26T07:06:32;28.58;;;9.43;;
49416;SDS011;35290;39.550;8.786;2024-02-26T07:08:58;31.25;;;10.30;;
49416;SDS011;35290;39.550;8.786;2024-02-26T07:11:24;34.60;;;9.82;;
49416;SDS011;35290;39.550;8.786;2024-02-26T07:13:50;29.52;;;10.70;;
49416;SDS011;35290;39.550;8.786;2024-02-26T07:16:15;31.48;;;10.05;;
49416;SDS011;35290;39.550;8.786;2024-02-26T07:18:41;33.80;;;9.35;;
49416;SDS011;35290;39.550;8.786;2024-02-26T07:21:08;32.63;;;10.20;;
49416;SDS011;35290;39.550;8.786;2024-02-26T07:23:33;33.97;;;9.10;;
49416;SDS011;35290;39.550;8.786;2024-02-26T07:25:59;38.35;;;13.48;;
49416;SDS011;35290;39.550;8.786;2024-02-26T07:28:24;41.10;;;17.95;;
49416;SDS011;35290;39.550;8.786;2024-02-26T07:30:50;36.40;;;14.30;;
49416;SDS011;35290;39.550;8.786;2024-02-26T07:33:15;41.95;;;14.68;;
49416;SDS011;35290;39.550;8.786;2024-02-26T07:35:41;35.60;;;13.18;;
49416;SDS011;35290;39.550;8.786;2024-02-26T07:38:06;35.63;;;14.07;;
49416;SDS011;35290;39.550;8.786;2024-02-26T07:40:32;35.53;;;13.27;;
49416;SDS011;35290;39.550;8.786;2024-02-26T07:42:58;48.25;;;20.80;;
49416;SDS011;35290;39.550;8.786;2024-02-26T07:45:24;46.83;;;22.13;;
49416;SDS011;35290;39.550;8.786;2024-02-26T07:47:50;67.38;;;31.40;;
49416;SDS011;35290;39.550;8.786;2024-02-26T07:50:17;54.08;;;32.13;;
49416;SDS011;35290;39.550;8.786;2024-02-26T07:52:43;57.78;;;33.88;;
49416;SDS011;35290;39.550;8.786;2024-02-26T07:55:10;49.85;;;29.30;;
49416;SDS011;35290;39.550;8.786;2024-02-26T07:57:36;51.53;;;26.35;;
49416;SDS011;35290;39.550;8.786;2024-02-26T08:00:02;41.97;;;19.00;;
49416;SDS011;35290;39.550;8.786;2024-02-26T08:02:30;46.00;;;18.73;;
49416;SDS011;35290;39.550;8.786;2024-02-26T08:04:56;32.20;;;13.50;;
49416;SDS011;35290;39.550;8.786;2024-02-26T08:07:21;36.33;;;14.73;;
49416;SDS011;35290;39.550;8.786;2024-02-26T08:09:48;40.63;;;14.68;;
49416;SDS011;35290;39.550;8.786;2024-02-26T08:12:15;40.42;;;15.68;;
49416;SDS011;35290;39.550;8.786;2024-02-26T08:14:41;43.40;;;14.73;;
49416;SDS011;35290;39.550;8.786;2024-02-26T08:17:09;39.30;;;15.45;;
49416;SDS011;35290;39.550;8.786;2024-02-26T08:19:35;40.50;;;15.32;;
49416;SDS011;35290;39.550;8.786;2024-02-26T08:22:02;44.90;;;16.15;;
49416;SDS011;35290;39.550;8.786;2024-02-26T08:24:28;47.17;;;15.65;;
49416;SDS011;35290;39.550;8.786;2024-02-26T08:26:54;42.38;;;16.13;;
49416;SDS011;35290;39.550;8.786;2024-02-26T08:29:20;41.33;;;17.58;;
49416;SDS011;35290;39.550;8.786;2024-02-26T08:31:45;40.83;;;17.58;;
49416;SDS011;35290;39.550;8.786;2024-02-26T08:34:11;41.20;;;18.88;;
49416;SDS011;35290;39.550;8.786;2024-02-26T08:36:37;41.72;;;18.05;;
49416;SDS011;35290;39.550;8.786;2024-02-26T08:39:03;40.70;;;17.88;;
49416;SDS011;35290;39.550;8.786;2024-02-26T08:41:29;37.65;;;16.75;;
49416;SDS011;35290;39.550;8.786;2024-02-26T08:43:55;34.15;;;12.48;;
49416;SDS011;35290;39.550;8.786;2024-02-26T08:46:21;27.95;;;11.85;;
49416;SDS011;35290;39.550;8.786;2024-02-26T08:48:47;35.30;;;11.88;;
49416;SDS011;35290;39.550;8.786;2024-02-26T08:51:12;34.72;;;10.73;;
49416;SDS011;35290;39.550;8.786;2024-02-26T08:53:38;28.65;;;11.07;;
49416;SDS011;35290;39.550;8.786;2024-02-26T08:56:04;33.60;;;12.75;;
49416;SDS011;35290;39.550;8.786;2024-02-26T08:58:30;33.38;;;11.02;;
49416;SDS011;35290;39.550;8.786;2024-02-26T09:00:56;29.70;;;8.52;;
49416;SDS011;35290;39.550;8.786;2024-02-26T09:03:22;30.15;;;7.95;;
49416;SDS011;35290;39.550;8.786;2024-02-26T09:05:48;26.25;;;6.22;;
49416;SDS011;35290;39.550;8.786;2024-02-26T09:08:14;22.65;;;4.93;;
49416;SDS011;35290;39.550;8.786;2024-02-26T09:10:40;23.88;;;5.75;;
49416;SDS011;35290;39.550;8.786;2024-02-26T09:13:06;30.30;;;7.18;;
49416;SDS011;35290;39.550;8.786;2024-02-26T09:15:32;29.45;;;9.60;;
49416;SDS011;35290;39.550;8.786;2024-02-26T09:17:58;27.77;;;9.45;;
49416;SDS011;35290;39.550;8.786;2024-02-26T09:20:23;36.20;;;9.40;;
49416;SDS011;35290;39.550;8.786;2024-02-26T09:22:50;31.77;;;11.00;;
49416;SDS011;35290;39.550;8.786;2024-02-26T09:25:16;29.90;;;9.80;;
49416;SDS011;35290;39.550;8.786;2024-02-26T09:27:43;44.03;;;16.02;;
49416;SDS011;35290;39.550;8.786;2024-02-26T09:30:12;43.17;;;15.73;;
49416;SDS011;35290;39.550;8.786;2024-02-26T09:32:39;42.05;;;13.90;;
49416;SDS011;35290;39.550;8.786;2024-02-26T09:35:05;36.30;;;13.80;;
49416;SDS011;35290;39.550;8.786;2024-02-26T09:37:31;43.80;;;18.05;;
49416;SDS011;35290;39.550;8.786;2024-02-26T09:39:58;42.47;;;19.80;;
49416;SDS011;35290;39.550;8.786;2024-02-26T09:42:27;54.05;;;22.20;;
49416;SDS011;35290;39.550;8.786;2024-02-26T09:44:54;56.13;;;22.85;;
49416;SDS011;35290;39.550;8.786;2024-02-26T09:47:26;49.83;;;22.50;;
49416;SDS011;35290;39.550;8.786;2024-02-26T09:49:53;50.33;;;20.88;;
49416;SDS011;35290;39.550;8.786;2024-02-26T09:52:23;52.63;;;22.75;;
49416;SDS011;35290;39.550;8.786;2024-02-26T09:54:49;58.58;;;25.73;;
49416;SDS011;35290;39.550;8.786;2024-02-26T09:57:15;44.80;;;18.05;;
49416;SDS011;35290;39.550;8.786;2024-02-26T09:59:42;45.00;;;18.58;;
49416;SDS011;35290;39.550;8.786;2024-02-26T10:02:09;49.45;;;19.90;;
49416;SDS011;35290;39.550;8.786;2024-02-26T10:04:38;37.33;;;16.25;;
49416;SDS011;35290;39.550;8.786;2024-02-26T10:07:06;43.00;;;21.95;;
49416;SDS011;35290;39.550;8.786;2024-02-26T10:09:35;46.42;;;21.88;;
49416;SDS011;35290;39.550;8.786;2024-02-26T10:12:03;36.83;;;18.17;;
49416;SDS011;35290;39.550;8.786;2024-02-26T10:14:30;34.58;;;16.10;;
49416;SDS011;35290;39.550;8.786;2024-02-26T10:16:56;27.10;;;14.60;;
49416;SDS011;35290;39.550;8.786;2024-02-26T10:19:30;26.83;;;13.55;;
49416;SDS011;35290;39.550;8.786;2024-02-26T10:21:59;40.22;;;13.65;;
49416;SDS011;35290;39.550;8.786;2024-02-26T10:24:26;40.15;;;14.80;;
49416;SDS011;35290;39.550;8.786;2024-02-26T10:26:52;33.22;;;13.00;;
49416;SDS011;35290;39.550;8.786;2024-02-26T10:29:20;31.98;;;11.93;;
49416;SDS011;35290;39.550;8.786;2024-02-26T10:31:47;43.28;;;11.52;;
49416;SDS011;35290;39.550;8.786;2024-02-26T10:34:16;34.13;;;11.30;;
49416;SDS011;35290;39.550;8.786;2024-02-26T10:36:42;32.60;;;11.25;;
49416;SDS011;35290;39.550;8.786;2024-02-26T10:39:09;31.23;;;11.15;;
49416;SDS011;35290;39.550;8.786;2024-02-26T10:41:39;31.33;;;11.95;;
49416;SDS011;35290;39.550;8.786;2024-02-26T10:44:08;35.17;;;11.98;;
49416;SDS011;35290;39.550;8.786;2024-02-26T10:46:36;28.05;;;11.30;;
49416;SDS011;35290;39.550;8.786;2024-02-26T10:49:02;23.15;;;8.93;;
49416;SDS011;35290;39.550;8.786;2024-02-26T10:51:31;27.42;;;10.23;;
49416;SDS011;35290;39.550;8.786;2024-02-26T10:54:00;27.17;;;10.20;;
49416;SDS011;35290;39.550;8.786;2024-02-26T10:56:27;35.90;;;14.15;;
49416;SDS011;35290;39.550;8.786;2024-02-26T10:58:54;27.48;;;12.45;;
49416;SDS011;35290;39.550;8.786;2024-02-26T11:01:21;34.58;;;14.68;;
49416;SDS011;35290;39.550;8.786;2024-02-26T11:03:51;29.20;;;12.02;;
49416;SDS011;35290;39.550;8.786;2024-02-26T11:06:21;36.35;;;15.85;;
49416;SDS011;35290;39.550;8.786;2024-02-26T11:08:48;33.45;;;18.27;;
49416;SDS011;35290;39.550;8.786;2024-02-26T11:11:15;30.30;;;13.23;;
49416;SDS011;35290;39.550;8.786;2024-02-26T11:13:42;38.17;;;12.48;;
49416;SDS011;35290;39.550;8.786;2024-02-26T11:16:20;30.38;;;11.90;;
49416;SDS011;35290;39.550;8.786;2024-02-26T11:18:47;30.35;;;9.50;;
49416;SDS011;35290;39.550;8.786;2024-02-26T11:21:17;28.60;;;9.52;;
49416;SDS011;35290;39.550;8.786;2024-02-26T11:23:47;25.63;;;8.85;;
49416;SDS011;35290;39.550;8.786;2024-02-26T11:26:13;30.98;;;8.27;;
49416;SDS011;35290;39.550;8.786;2024-02-26T11:28:40;28.95;;;7.57;;
49416;SDS011;35290;39.550;8.786;2024-02-26T11:31:06;29.63;;;8.68;;
49416;SDS011;35290;39.550;8.786;2024-02-26T11:33:34;30.33;;;7.55;;
49416;SDS011;35290;39.550;8.786;2024-02-26T11:36:01;30.33;;;6.95;;
49416;SDS011;35290;39.550;8.786;2024-02-26T11:38:28;35.17;;;7.72;;
49416;SDS011;35290;39.550;8.786;2024-02-26T11:40:54;32.97;;;8.65;;
49416;SDS011;35290;39.550;8.786;2024-02-26T11:43:49;27.10;;;7.13;;
49416;SDS011;35290;39.550;8.786;2024-02-26T11:46:32;23.10;;;6.53;;
49416;SDS011;35290;39.550;8.786;2024-02-26T11:49:02;32.90;;;5.55;;
49416;SDS011;35290;39.550;8.786;2024-02-26T11:51:33;22.90;;;5.80;;
49416;SDS011;35290;39.550;8.786;2024-02-26T11:54:00;25.00;;;5.78;;
49416;SDS011;35290;39.550;8.786;2024-02-26T11:56:26;29.92;;;8.07;;
49416;SDS011;35290;39.550;8.786;2024-02-26T11:59:37;31.30;;;9.98;;
49416;SDS011;35290;39.550;8.786;2024-02-26T12:02:02;23.17;;;9.45;;
49416;SDS011;35290;39.550;8.786;2024-02-26T12:04:29;24.98;;;7.05;;
49416;SDS011;35290;39.550;8.786;2024-02-26T12:06:56;31.23;;;9.60;;
49416;SDS011;35290;39.550;8.786;2024-02-26T12:12:03;30.35;;;10.30;;
49416;SDS011;35290;39.550;8.786;2024-02-26T12:14:32;28.27;;;10.52;;
49416;SDS011;35290;39.550;8.786;2024-02-26T12:16:58;27.75;;;10.40;;
49416;SDS011;35290;39.550;8.786;2024-02-26T12:19:24;32.65;;;10.23;;
49416;SDS011;35290;39.550;8.786;2024-02-26T12:21:54;32.60;;;10.35;;
49416;SDS011;35290;39.550;8.786;2024-02-26T12:24:20;34.35;;;10.15;;
49416;SDS011;35290;39.550;8.786;2024-02-26T12:26:46;32.45;;;8.77;;
49416;SDS011;35290;39.550;8.786;2024-02-26T12:29:12;32.33;;;8.55;;
49416;SDS011;35290;39.550;8.786;2024-02-26T12:31:39;29.17;;;7.63;;
49416;SDS011;35290;39.550;8.786;2024-02-26T12:34:07;31.42;;;8.95;;
49416;SDS011;35290;39.550;8.786;2024-02-26T12:36:34;29.88;;;8.85;;
49416;SDS011;35290;39.550;8.786;2024-02-26T12:39:01;30.80;;;7.88;;
49416;SDS011;35290;39.550;8.786;2024-02-26T12:41:28;29.70;;;9.52;;
49416;SDS011;35290;39.550;8.786;2024-02-26T12:43:55;32.15;;;10.00;;
49416;SDS011;35290;39.550;8.786;2024-02-26T12:46:21;31.83;;;9.57;;
49416;SDS011;35290;39.550;8.786;2024-02-26T12:48:47;29.10;;;10.65;;
49416;SDS011;35290;39.550;8.786;2024-02-26T12:51:14;33.53;;;8.15;;
49416;SDS011;35290;39.550;8.786;2024-02-26T12:53:41;35.25;;;9.63;;
49416;SDS011;35290;39.550;8.786;2024-02-26T12:56:10;30.60;;;8.68;;
49416;SDS011;35290;39.550;8.786;2024-02-26T12:58:37;29.23;;;6.65;;
49416;SDS011;35290;39.550;8.786;2024-02-26T13:01:04;26.73;;;6.18;;
49416;SDS011;35290;39.550;8.786;2024-02-26T13:03:31;26.60;;;5.97;;
49416;SDS011;35290;39.550;8.786;2024-02-26T13:06:00;29.73;;;5.60;;
49416;SDS011;35290;39.550;8.786;2024-02-26T13:08:26;31.75;;;5.50;;
49416;SDS011;35290;39.550;8.786;2024-02-26T13:10:51;30.50;;;5.47;;
49416;SDS011;35290;39.550;8.786;2024-02-26T13:13:18;28.85;;;6.32;;
49416;SDS011;35290;39.550;8.786;2024-02-26T13:15:45;32.25;;;6.40;;
49416;SDS011;35290;39.550;8.786;2024-02-26T13:18:11;31.58;;;5.35;;
49416;SDS011;35290;39.550;8.786;2024-02-26T13:20:38;21.30;;;4.20;;
49416;SDS011;35290;39.550;8.786;2024-02-26T13:23:07;25.80;;;5.60;;
49416;SDS011;35290;39.550;8.786;2024-02-26T13:25:35;27.85;;;5.00;;
49416;SDS011;35290;39.550;8.786;2024-02-26T13:30:38;27.27;;;7.10;;
49416;SDS011;35290;39.550;8.786;2024-02-26T13:33:11;26.77;;;6.18;;
49416;SDS011;35290;39.550;8.786;2024-02-26T13:35:37;30.15;;;7.10;;
49416;SDS011;35290;39.550;8.786;2024-02-26T13:38:06;29.38;;;7.45;;
49416;SDS011;35290;39.550;8.786;2024-02-26T13:40:32;27.25;;;6.85;;
49416;SDS011;35290;39.550;8.786;2024-02-26T13:42:59;22.70;;;6.25;;
49416;SDS011;35290;39.550;8.786;2024-02-26T13:45:25;30.17;;;5.30;;
49416;SDS011;35290;39.550;8.786;2024-02-26T13:47:51;27.77;;;3.72;;
49416;SDS011;35290;39.550;8.786;2024-02-26T13:50:16;30.30;;;4.70;;
49416;SDS011;35290;39.550;8.786;2024-02-26T13:52:46;31.02;;;5.22;;
49416;SDS011;35290;39.550;8.786;2024-02-26T13:55:18;31.05;;;4.53;;
49416;SDS011;35290;39.550;8.786;2024-02-26T13:57:45;30.58;;;4.55;;
49416;SDS011;35290;39.550;8.786;2024-02-26T14:00:10;28.60;;;5.00;;
49416;SDS011;35290;39.550;8.786;2024-02-26T14:02:36;32.03;;;5.15;;
49416;SDS011;35290;39.550;8.786;2024-02-26T14:05:02;33.63;;;4.47;;
49416;SDS011;35290;39.550;8.786;2024-02-26T14:07:30;27.70;;;4.65;;
49416;SDS011;35290;39.550;8.786;2024-02-26T14:09:58;30.15;;;4.70;;
49416;SDS011;35290;39.550;8.786;2024-02-26T14:12:24;29.83;;;4.90;;
49416;SDS011;35290;39.550;8.786;2024-02-26T14:14:51;30.65;;;4.88;;
49416;SDS011;35290;39.550;8.786;2024-02-26T14:17:23;32.88;;;5.70;;
49416;SDS011;35290;39.550;8.786;2024-02-26T14:19:48;29.40;;;5.43;;
49416;SDS011;35290;39.550;8.786;2024-02-26T14:22:15;30.25;;;4.93;;
49416;SDS011;35290;39.550;8.786;2024-02-26T14:24:41;37.92;;;8.38;;
49416;SDS011;35290;39.550;8.786;2024-02-26T14:27:10;35.80;;;7.03;;
49416;SDS011;35290;39.550;8.786;2024-02-26T14:29:41;28.02;;;5.15;;
49416;SDS011;35290;39.550;8.786;2024-02-26T14:32:08;33.40;;;5.78;;
49416;SDS011;35290;39.550;8.786;2024-02-26T14:34:34;29.73;;;5.05;;
49416;SDS011;35290;39.550;8.786;2024-02-26T14:36:59;26.63;;;4.95;;